Time;durP1;ratioP1;P1;durP2;ratioP2;P2;SDS_P1;SDS_P2;PMS_P1;PMS_P2;Temp;Humidity;BMP_temperature;BMP_pressure;BME280_temperature;BME280_humidity;BME280_pressure;Samples;Min_cycle;Max_cycle;Signal;HPM_P1;HPM_P2
2023/04/29 00:01:10;;;;;;;6.93;5.50;;;12.60;99.90;;;;;;10520600;28;20222;-70
2023/04/29 00:06:11;;;;;;;6.63;6.03;;;12.70;99.90;;;;;;10529048;28;20275;-70
2023/04/29 00:11:12;;;;;;;7.43;6.43;;;12.70;99.90;;;;;;10495229;28;20226;-69
2023/04/29 00:16:12;;;;;;;8.47;5.87;;;12.70;99.90;;;;;;10520279;28;20422;-71
2023/04/29 00:21:13;;;;;;;8.43;6.90;;;12.70;99.90;;;;;;10522537;28;20225;-71
2023/04/29 00:26:14;;;;;;;7.10;6.40;;;12.60;99.90;;;;;;10500816;28;20211;-71
2023/04/29 00:31:14;;;;;;;6.90;6.20;;;12.50;99.90;;;;;;10520172;28;20219;-70
2023/04/29 00:36:15;;;;;;;6.77;6.07;;;12.40;99.90;;;;;;10506341;28;20305;-71
2023/04/29 00:41:16;;;;;;;8.53;6.17;;;12.30;99.90;;;;;;10502124;28;20280;-70
2023/04/29 00:46:16;;;;;;;7.43;5.63;;;12.20;99.90;;;;;;10519706;28;20307;-71
2023/04/29 00:51:17;;;;;;;6.57;5.77;;;12.10;99.90;;;;;;10511713;28;20574;-72
2023/04/29 00:56:19;;;;;;;7.07;5.57;;;12.00;99.90;;;;;;10518333;28;20229;-71
2023/04/29 01:01:20;;;;;;;9.23;6.10;;;12.00;99.90;;;;;;10501137;28;20284;-71
2023/04/29 01:06:40;;;;;;;8.77;6.83;;;12.10;99.90;;;;;;10520690;28;20208;-71
2023/04/29 01:12:07;;;;;;;7.60;6.70;;;12.30;99.90;;;;;;10495661;28;20328;-72
2023/04/29 01:17:17;;;;;;;9.27;6.33;;;12.40;99.90;;;;;;10511698;28;20219;-71
2023/04/29 01:22:19;;;;;;;8.27;6.63;;;12.50;99.90;;;;;;10509483;28;20223;-71
2023/04/29 01:27:38;;;;;;;7.73;6.07;;;12.60;99.90;;;;;;10510620;28;20222;-71
2023/04/29 01:32:52;;;;;;;6.83;6.13;;;12.60;99.90;;;;;;10493482;28;20227;-70
2023/04/29 01:38:17;;;;;;;6.13;5.63;;;12.70;99.90;;;;;;10491964;28;20218;-70
2023/04/29 01:43:21;;;;;;;6.47;5.63;;;12.70;99.90;;;;;;10513367;28;20254;-71
2023/04/29 01:48:23;;;;;;;6.53;5.83;;;12.80;99.90;;;;;;10497705;28;20218;-72
2023/04/29 01:53:23;;;;;;;6.57;5.20;;;12.80;99.90;;;;;;10491730;28;20306;-71
2023/04/29 01:58:24;;;;;;;5.90;5.37;;;12.90;99.90;;;;;;10492986;28;20697;-70
2023/04/29 02:03:24;;;;;;;5.83;5.33;;;12.80;99.90;;;;;;10518715;28;20943;-72
2023/04/29 02:08:25;;;;;;;6.53;5.20;;;12.80;99.90;;;;;;10509460;28;20219;-71
2023/04/29 02:13:26;;;;;;;5.20;4.70;;;12.70;99.90;;;;;;10519151;28;20207;-71
2023/04/29 02:18:27;;;;;;;6.43;4.77;;;12.70;99.90;;;;;;10516300;28;20266;-70
2023/04/29 02:23:28;;;;;;;6.83;5.63;;;12.70;99.90;;;;;;10499468;28;20230;-72
2023/04/29 02:28:28;;;;;;;5.00;4.40;;;12.60;99.90;;;;;;10531067;28;20232;-72
2023/04/29 02:33:29;;;;;;;5.37;4.40;;;12.70;99.90;;;;;;10514145;28;20225;-72
2023/04/29 02:38:30;;;;;;;4.40;4.00;;;12.60;99.90;;;;;;10491301;28;20247;-70
2023/04/29 02:43:31;;;;;;;6.20;4.00;;;12.70;99.90;;;;;;10512812;28;20238;-72
2023/04/29 02:48:34;;;;;;;4.97;4.00;;;12.70;99.90;;;;;;10507415;28;20210;-69
2023/04/29 02:53:35;;;;;;;4.00;3.60;;;12.70;99.90;;;;;;10501123;28;21119;-70
2023/04/29 02:58:35;;;;;;;3.73;3.43;;;12.60;99.90;;;;;;10495785;28;20218;-71
2023/04/29 03:03:36;;;;;;;5.63;4.07;;;12.60;99.90;;;;;;10514563;28;20271;-70
2023/04/29 03:08:37;;;;;;;5.17;3.90;;;12.60;99.90;;;;;;10493644;28;20226;-72
2023/04/29 03:13:37;;;;;;;4.77;3.80;;;12.50;99.90;;;;;;10491213;28;20271;-70
2023/04/29 03:18:38;;;;;;;4.20;3.60;;;12.50;99.90;;;;;;10493635;28;20223;-72
2023/04/29 03:23:39;;;;;;;3.73;3.13;;;12.60;99.90;;;;;;10502328;28;20226;-71
2023/04/29 03:28:39;;;;;;;4.37;3.40;;;12.60;99.90;;;;;;10492367;28;20214;-71
2023/04/29 03:33:40;;;;;;;4.63;4.13;;;12.60;99.90;;;;;;10524699;28;20226;-71
2023/04/29 03:38:41;;;;;;;6.57;3.43;;;12.50;99.90;;;;;;10492185;28;20215;-72
2023/04/29 03:43:43;;;;;;;3.63;3.33;;;12.50;99.90;;;;;;10516275;28;20313;-71
2023/04/29 03:48:43;;;;;;;5.03;3.00;;;12.50;99.90;;;;;;10528805;28;20219;-71
2023/04/29 03:53:44;;;;;;;3.70;2.93;;;12.50;99.90;;;;;;10513309;28;20218;-71
2023/04/29 03:58:45;;;;;;;3.03;2.70;;;12.50;99.90;;;;;;10520678;28;20301;-70
2023/04/29 04:03:45;;;;;;;3.47;3.17;;;12.50;99.90;;;;;;10491832;28;20627;-70
2023/04/29 04:08:46;;;;;;;4.73;3.00;;;12.50;99.90;;;;;;10504749;28;20215;-71
2023/04/29 04:13:46;;;;;;;3.30;3.00;;;12.50;99.90;;;;;;10494750;28;20280;-70
2023/04/29 04:18:47;;;;;;;3.17;2.70;;;12.40;99.90;;;;;;10509912;28;20242;-71
2023/04/29 04:23:48;;;;;;;3.13;2.60;;;12.50;99.90;;;;;;10516658;28;20223;-71
2023/04/29 04:28:48;;;;;;;2.90;2.70;;;12.50;99.90;;;;;;10508973;28;20222;-71
2023/04/29 04:33:49;;;;;;;8.10;3.20;;;12.50;99.90;;;;;;10490958;28;20253;-70
2023/04/29 04:38:49;;;;;;;2.87;2.67;;;12.60;99.90;;;;;;10512403;28;20214;-71
2023/04/29 04:43:50;;;;;;;2.93;2.53;;;12.60;99.90;;;;;;10535243;28;20222;-71
2023/04/29 04:48:51;;;;;;;4.67;2.43;;;12.60;99.90;;;;;;10509779;28;20230;-70
2023/04/29 04:53:51;;;;;;;2.40;2.20;;;12.70;99.90;;;;;;10514811;28;20302;-69
2023/04/29 04:58:52;;;;;;;4.77;2.60;;;12.80;99.90;;;;;;10520651;28;20215;-71
2023/04/29 05:03:52;;;;;;;3.53;2.43;;;12.80;99.90;;;;;;10519694;28;20288;-70
2023/04/29 05:08:53;;;;;;;2.43;2.23;;;12.80;99.90;;;;;;10526581;28;20230;-71
2023/04/29 05:13:54;;;;;;;4.63;2.87;;;12.90;99.90;;;;;;10516329;28;20212;-71
2023/04/29 05:18:55;;;;;;;3.97;2.60;;;13.00;99.90;;;;;;10512858;28;20563;-71
2023/04/29 05:23:56;;;;;;;4.00;3.03;;;13.00;99.90;;;;;;10492867;28;20259;-72
2023/04/29 05:28:57;;;;;;;3.47;2.97;;;13.00;99.90;;;;;;10515397;28;20242;-71
2023/04/29 05:33:57;;;;;;;4.07;2.93;;;13.10;99.90;;;;;;10527343;28;20215;-71
2023/04/29 05:38:58;;;;;;;2.80;2.60;;;13.20;99.90;;;;;;10515338;28;20242;-71
2023/04/29 05:43:58;;;;;;;3.67;2.90;;;13.30;99.90;;;;;;10519817;28;20231;-70
2023/04/29 05:48:59;;;;;;;3.60;2.73;;;13.40;99.90;;;;;;10493282;28;20223;-71
2023/04/29 05:54:00;;;;;;;2.90;2.70;;;13.40;99.90;;;;;;10514433;28;20304;-70
2023/04/29 05:59:01;;;;;;;3.80;3.40;;;13.50;99.90;;;;;;10492980;28;20230;-71
2023/04/29 06:04:01;;;;;;;4.90;4.47;;;13.70;99.90;;;;;;10515427;28;20295;-70
2023/04/29 06:09:03;;;;;;;6.27;5.20;;;13.80;99.90;;;;;;10498623;28;20601;-69
2023/04/29 06:14:04;;;;;;;11.50;7.47;;;14.40;99.90;;;;;;10499237;28;20696;-71
2023/04/29 06:19:05;;;;;;;11.70;7.50;;;15.40;99.90;;;;;;10538403;28;20235;-72
2023/04/29 06:24:06;;;;;;;9.43;7.83;;;16.60;99.90;;;;;;10499259;28;20648;-71
2023/04/29 06:29:07;;;;;;;9.77;8.17;;;17.50;99.90;;;;;;10501081;28;20234;-71
2023/04/29 06:34:07;;;;;;;9.00;8.10;;;17.20;99.90;;;;;;10496630;28;20255;-72
2023/04/29 06:39:08;;;;;;;10.73;8.03;;;16.50;99.90;;;;;;10508074;28;20213;-70
2023/04/29 06:44:09;;;;;;;10.37;8.10;;;16.10;99.90;;;;;;10520706;28;20221;-71
2023/04/29 06:49:09;;;;;;;13.33;8.33;;;16.10;99.90;;;;;;10488916;28;20229;-70
2023/04/29 06:54:10;;;;;;;8.77;7.87;;;16.20;99.90;;;;;;10504521;28;20216;-71
2023/04/29 06:59:11;;;;;;;8.80;6.77;;;16.00;99.90;;;;;;10510191;28;20226;-70
2023/04/29 07:04:12;;;;;;;8.17;6.60;;;15.70;99.90;;;;;;10503155;28;20215;-70
2023/04/29 07:09:13;;;;;;;7.43;6.47;;;15.60;99.90;;;;;;10506146;28;20277;-71
2023/04/29 07:14:14;;;;;;;9.47;6.20;;;15.40;99.90;;;;;;10506398;28;20215;-71
2023/04/29 07:19:14;;;;;;;6.53;5.50;;;15.60;99.90;;;;;;10513526;28;20224;-71
2023/04/29 07:24:15;;;;;;;6.77;5.30;;;15.70;99.90;;;;;;10505529;28;20657;-71
2023/04/29 07:29:17;;;;;;;6.13;4.50;;;15.60;99.90;;;;;;10489226;28;20236;-71
2023/04/29 07:34:17;;;;;;;5.83;4.70;;;15.80;99.90;;;;;;10489034;28;20224;-71
2023/04/29 07:39:18;;;;;;;5.03;4.50;;;16.10;99.90;;;;;;10487491;28;20683;-71
2023/04/29 07:44:18;;;;;;;6.03;4.07;;;16.70;99.90;;;;;;10487299;28;20231;-71
2023/04/29 07:49:19;;;;;;;4.60;3.90;;;18.80;99.90;;;;;;10513085;28;20275;-72
2023/04/29 07:54:21;;;;;;;5.60;3.90;;;21.00;99.90;;;;;;10486410;28;20709;-71
2023/04/29 07:59:21;;;;;;;4.27;3.87;;;22.00;99.90;;;;;;10519741;28;20710;-71
2023/04/29 08:04:23;;;;;;;4.37;3.97;;;22.30;96.10;;;;;;10487705;28;20322;-70
2023/04/29 08:09:23;;;;;;;6.00;3.83;;;21.50;96.20;;;;;;10528028;28;20214;-70
2023/04/29 08:14:24;;;;;;;4.97;3.73;;;20.60;97.50;;;;;;10497450;28;20225;-72
2023/04/29 08:19:24;;;;;;;3.80;3.27;;;19.70;97.20;;;;;;10520862;28;20229;-71
2023/04/29 08:24:25;;;;;;;3.60;3.30;;;18.70;99.60;;;;;;10521431;28;20218;-71
2023/04/29 08:29:26;;;;;;;3.70;3.40;;;18.20;99.90;;;;;;10518761;28;20222;-71
2023/04/29 08:34:27;;;;;;;3.23;2.93;;;17.90;99.90;;;;;;10517919;28;20219;-71
2023/04/29 08:39:31;;;;;;;3.83;3.47;;;17.70;99.90;;;;;;10498969;28;20780;-72
2023/04/29 08:44:33;;;;;;;3.57;3.27;;;17.60;99.90;;;;;;10514085;28;20231;-71
2023/04/29 08:49:36;;;;;;;4.40;3.40;;;17.30;99.90;;;;;;10503202;28;20706;-71
2023/04/29 08:54:37;;;;;;;5.23;4.20;;;17.10;99.90;;;;;;10524276;28;20221;-71
2023/04/29 08:59:37;;;;;;;4.70;3.83;;;17.10;99.90;;;;;;10519278;28;20692;-72
2023/04/29 09:05:14;;;;;;;3.30;3.00;;;17.30;99.90;;;;;;10516072;28;20218;-71
2023/04/29 09:10:15;;;;;;;4.00;3.50;;;17.10;99.90;;;;;;10442705;28;20225;-72
2023/04/29 09:15:16;;;;;;;5.13;3.90;;;16.90;99.90;;;;;;10492505;28;20182;-71
2023/04/29 09:20:20;;;;;;;5.13;4.03;;;16.80;99.90;;;;;;10526082;28;20225;-73
2023/04/29 09:25:21;;;;;;;4.67;4.17;;;16.70;99.90;;;;;;10491427;28;20204;-70
2023/04/29 09:30:22;;;;;;;5.20;4.70;;;16.80;99.90;;;;;;10500442;28;20545;-71
2023/04/29 09:35:24;;;;;;;5.33;4.67;;;16.70;99.90;;;;;;10517417;28;20185;-71
2023/04/29 09:40:29;;;;;;;6.23;4.27;;;16.70;99.90;;;;;;10497630;28;20240;-71
2023/04/29 09:45:56;;;;;;;5.00;4.50;;;16.80;99.90;;;;;;10519168;28;20616;-71
2023/04/29 09:51:01;;;;;;;6.67;4.67;;;17.10;99.90;;;;;;10513633;28;20225;-70
2023/04/29 09:56:02;;;;;;;4.93;4.53;;;17.10;99.90;;;;;;10509973;28;20537;-71
2023/04/29 10:01:03;;;;;;;4.00;3.60;;;16.80;99.90;;;;;;10496733;28;20325;-71
2023/04/29 10:06:06;;;;;;;6.00;4.67;;;16.70;99.90;;;;;;10520329;28;20256;-71
2023/04/29 10:11:09;;;;;;;4.63;4.03;;;16.50;99.90;;;;;;10497475;28;20233;-71
2023/04/29 10:16:28;;;;;;;6.97;4.43;;;16.60;99.90;;;;;;10490688;28;20254;-70
2023/04/29 10:21:30;;;;;;;4.03;3.73;;;16.70;99.90;;;;;;10497506;28;20237;-70
2023/04/29 10:26:32;;;;;;;3.57;3.27;;;16.60;99.90;;;;;;10489400;28;20722;-71
2023/04/29 10:31:35;;;;;;;4.90;3.40;;;16.50;99.90;;;;;;10511794;28;20229;-70
2023/04/29 10:36:36;;;;;;;4.97;3.63;;;16.60;99.90;;;;;;10506767;28;20590;-73
2023/04/29 10:41:45;;;;;;;3.90;3.50;;;16.50;99.90;;;;;;10483766;28;20257;-71
2023/04/29 10:46:46;;;;;;;3.87;3.13;;;16.40;99.90;;;;;;10496839;28;20309;-72
2023/04/29 10:51:46;;;;;;;4.03;3.47;;;16.50;99.90;;;;;;10534630;28;20313;-71
2023/04/29 10:56:49;;;;;;;6.30;4.93;;;16.60;99.90;;;;;;10497049;28;20225;-71
2023/04/29 11:01:51;;;;;;;5.73;4.87;;;16.60;99.90;;;;;;10500214;28;20414;-71
2023/04/29 11:06:54;;;;;;;6.37;5.30;;;16.60;99.90;;;;;;10509158;28;20317;-72
2023/04/29 11:11:57;;;;;;;5.20;4.70;;;16.80;99.90;;;;;;10493343;28;20219;-71
2023/04/29 11:17:00;;;;;;;6.40;5.30;;;17.00;99.90;;;;;;10508174;28;20245;-71
2023/04/29 11:22:25;;;;;;;5.53;4.87;;;17.20;99.90;;;;;;10493487;28;20308;-71
2023/04/29 11:27:30;;;;;;;5.83;4.73;;;17.10;99.90;;;;;;10483370;28;20212;-71
2023/04/29 11:32:32;;;;;;;5.20;4.30;;;16.90;99.90;;;;;;10504715;28;20217;-71
2023/04/29 11:37:34;;;;;;;5.33;4.83;;;16.60;99.90;;;;;;10511535;28;20292;-71
2023/04/29 11:42:56;;;;;;;5.57;4.90;;;16.20;99.90;;;;;;10511055;28;20237;-71
2023/04/29 11:47:56;;;;;;;4.63;4.13;;;16.00;99.90;;;;;;10508321;28;20224;-71
2023/04/29 11:52:57;;;;;;;5.00;4.50;;;15.80;99.90;;;;;;10535179;28;20250;-72
2023/04/29 11:57:58;;;;;;;4.13;3.73;;;15.70;99.90;;;;;;10503468;28;20217;-71
2023/04/29 12:02:59;;;;;;;3.83;3.50;;;15.70;99.90;;;;;;10524203;28;20234;-71
2023/04/29 12:08:00;;;;;;;3.90;3.50;;;16.00;99.90;;;;;;10500771;28;20223;-71
2023/04/29 12:13:02;;;;;;;4.70;3.97;;;16.60;99.90;;;;;;10519662;28;20215;-71
2023/04/29 12:18:03;;;;;;;4.30;3.90;;;17.60;99.90;;;;;;10510045;28;20214;-72
2023/04/29 12:23:13;;;;;;;4.87;3.60;;;18.20;99.90;;;;;;10518998;28;20229;-71
2023/04/29 12:28:15;;;;;;;4.27;3.77;;;18.20;99.90;;;;;;10502884;28;20248;-70
2023/04/29 12:33:20;;;;;;;4.77;3.37;;;18.10;99.90;;;;;;10519132;28;20222;-71
2023/04/29 12:38:29;;;;;;;4.20;3.80;;;18.20;99.90;;;;;;10512775;28;20217;-71
2023/04/29 12:43:35;;;;;;;3.53;3.20;;;18.40;99.90;;;;;;10517921;28;20286;-70
2023/04/29 12:48:37;;;;;;;3.60;3.30;;;18.90;99.90;;;;;;10514596;28;20225;-70
2023/04/29 12:53:38;;;;;;;4.03;3.70;;;19.60;99.90;;;;;;10522516;28;20218;-71
2023/04/29 12:58:38;;;;;;;4.53;4.10;;;20.10;99.90;;;;;;10498372;28;20634;-70
2023/04/29 13:03:39;;;;;;;4.10;3.60;;;20.40;99.30;;;;;;10513010;28;20233;-71
2023/04/29 13:08:40;;;;;;;2.97;2.70;;;20.40;99.20;;;;;;10531933;28;20215;-72
2023/04/29 13:13:41;;;;;;;2.60;2.40;;;20.30;98.30;;;;;;10504130;28;20762;-70
2023/04/29 13:18:41;;;;;;;3.50;3.20;;;20.70;97.30;;;;;;10496888;28;20276;-71
2023/04/29 13:23:42;;;;;;;2.77;2.57;;;20.90;96.90;;;;;;10513734;28;20643;-70
2023/04/29 13:28:43;;;;;;;2.77;2.57;;;20.60;96.90;;;;;;10509710;28;20226;-71
2023/04/29 13:33:44;;;;;;;2.97;2.73;;;19.90;97.50;;;;;;10529999;28;20219;-71
2023/04/29 13:38:44;;;;;;;2.90;2.70;;;19.20;99.50;;;;;;10493468;28;20301;-71
2023/04/29 13:43:45;;;;;;;3.17;2.97;;;18.90;99.90;;;;;;10504166;28;20236;-71
2023/04/29 13:48:45;;;;;;;3.17;2.80;;;18.70;99.90;;;;;;10495177;28;20731;-71
2023/04/29 13:53:46;;;;;;;3.20;2.90;;;18.30;99.90;;;;;;10521465;28;20714;-72
2023/04/29 13:58:48;;;;;;;2.60;2.40;;;18.20;99.90;;;;;;10503547;28;20248;-72
2023/04/29 14:03:49;;;;;;;4.43;2.83;;;17.80;99.90;;;;;;10523048;28;20219;-72
2023/04/29 14:08:50;;;;;;;3.17;2.87;;;17.60;99.90;;;;;;10513438;28;20217;-71
2023/04/29 14:13:50;;;;;;;3.10;2.90;;;17.40;99.90;;;;;;10516822;28;20224;-73
2023/04/29 14:18:51;;;;;;;2.87;2.60;;;17.10;99.90;;;;;;10493398;28;20252;-72
2023/04/29 14:23:52;;;;;;;3.17;2.87;;;16.80;99.90;;;;;;10494753;28;20731;-71
2023/04/29 14:28:56;;;;;;;3.50;3.20;;;16.60;99.90;;;;;;10500946;28;20220;-71
2023/04/29 14:33:57;;;;;;;3.30;3.00;;;16.50;99.90;;;;;;10495398;28;20263;-71
2023/04/29 14:38:59;;;;;;;3.77;3.20;;;16.60;99.90;;;;;;10500460;28;20225;-71
2023/04/29 14:44:00;;;;;;;3.43;3.13;;;16.90;99.90;;;;;;10506898;28;20241;-72
2023/04/29 14:49:01;;;;;;;3.10;2.90;;;17.20;99.90;;;;;;10505900;28;20220;-71
2023/04/29 14:54:01;;;;;;;4.17;3.10;;;17.30;99.90;;;;;;10498684;28;20682;-70
2023/04/29 14:59:02;;;;;;;3.30;2.63;;;17.10;99.90;;;;;;10512546;28;20280;-71
2023/04/29 15:04:04;;;;;;;2.63;2.27;;;16.90;99.90;;;;;;10507771;28;20233;-72
2023/04/29 15:09:04;;;;;;;2.80;2.40;;;16.60;99.90;;;;;;10494597;28;20668;-71
2023/04/29 15:14:05;;;;;;;2.50;2.30;;;16.40;99.90;;;;;;10515526;28;20378;-70
2023/04/29 15:19:06;;;;;;;4.77;3.07;;;16.20;99.90;;;;;;10512143;28;20216;-71
2023/04/29 15:24:07;;;;;;;1.90;1.80;;;16.30;99.90;;;;;;10506370;28;20232;-71
2023/04/29 15:29:08;;;;;;;2.97;2.40;;;16.20;99.90;;;;;;10512371;28;20235;-70
2023/04/29 15:34:08;;;;;;;2.63;2.00;;;16.40;99.90;;;;;;10504183;28;20296;-71
2023/04/29 15:39:09;;;;;;;3.23;2.00;;;16.70;99.90;;;;;;10488572;28;20727;-72
2023/04/29 15:44:10;;;;;;;4.03;2.37;;;16.70;99.90;;;;;;10496870;28;20263;-71
2023/04/29 15:49:11;;;;;;;1.70;1.60;;;16.80;99.90;;;;;;10506086;28;20218;-72
2023/04/29 15:54:11;;;;;;;2.20;2.00;;;17.00;99.90;;;;;;10512306;28;20701;-71
2023/04/29 15:59:12;;;;;;;2.20;2.10;;;17.20;99.90;;;;;;10520583;28;20220;-71
2023/04/29 16:04:12;;;;;;;2.23;2.03;;;17.10;99.90;;;;;;10517076;28;20216;-72
2023/04/29 16:09:16;;;;;;;14.03;8.20;;;16.80;99.90;;;;;;10502367;28;20217;-71
2023/04/29 16:14:16;;;;;;;15.40;10.90;;;16.60;99.90;;;;;;10519851;28;20567;-71
2023/04/29 16:19:17;;;;;;;3.33;3.00;;;16.60;99.90;;;;;;10504028;28;20212;-71
2023/04/29 16:24:18;;;;;;;3.40;3.03;;;16.50;99.90;;;;;;10518602;28;20787;-70
2023/04/29 16:29:18;;;;;;;3.27;2.97;;;16.20;99.90;;;;;;10507496;28;20215;-71
2023/04/29 16:34:19;;;;;;;3.00;2.70;;;16.10;99.90;;;;;;10513909;28;20365;-71
2023/04/29 16:39:19;;;;;;;3.60;2.37;;;15.90;99.90;;;;;;10493610;28;20565;-71
2023/04/29 16:44:20;;;;;;;2.40;2.10;;;15.90;99.90;;;;;;10535057;28;20272;-71
2023/04/29 16:49:27;;;;;;;1.23;1.13;;;15.70;99.90;;;;;;10509822;28;20780;-71
2023/04/29 16:54:28;;;;;;;2.87;1.10;;;15.60;99.90;;;;;;10527741;28;20218;-70
2023/04/29 16:59:28;;;;;;;2.80;1.77;;;15.50;99.90;;;;;;10512671;28;20227;-71
2023/04/29 17:04:32;;;;;;;2.10;1.50;;;15.40;99.90;;;;;;10535149;28;20222;-71
2023/04/29 17:09:33;;;;;;;2.60;1.83;;;15.30;99.90;;;;;;10519471;28;20247;-72
2023/04/29 17:14:34;;;;;;;12.03;8.37;;;15.30;99.90;;;;;;10517191;28;20242;-71
2023/04/29 17:19:34;;;;;;;6.03;3.50;;;15.20;99.90;;;;;;10512964;28;20224;-72
2023/04/29 17:24:38;;;;;;;4.47;3.67;;;15.20;99.90;;;;;;10498173;28;20207;-71
2023/04/29 17:29:39;;;;;;;5.20;4.13;;;15.10;99.90;;;;;;10513067;28;20215;-71
2023/04/29 17:34:40;;;;;;;4.47;4.07;;;14.90;99.90;;;;;;10499893;28;20226;-71
2023/04/29 17:39:40;;;;;;;4.67;4.03;;;14.80;99.90;;;;;;10514403;28;20214;-72
2023/04/29 17:44:41;;;;;;;5.40;4.33;;;14.60;99.90;;;;;;10491271;28;20211;-71
2023/04/29 17:49:45;;;;;;;6.10;5.07;;;14.50;99.90;;;;;;10517804;28;20215;-71
2023/04/29 17:54:48;;;;;;;6.07;5.37;;;14.40;99.90;;;;;;10518904;28;20216;-70
2023/04/29 17:59:52;;;;;;;7.83;6.10;;;14.30;99.90;;;;;;10502279;28;20765;-72
2023/04/29 18:04:55;;;;;;;7.10;5.80;;;14.20;99.90;;;;;;10502961;28;20324;-70
2023/04/29 18:09:56;;;;;;;7.17;5.87;;;14.20;99.90;;;;;;10510992;28;20292;-71
2023/04/29 18:14:56;;;;;;;7.60;6.50;;;14.20;99.90;;;;;;10495319;28;20271;-71
2023/04/29 18:19:57;;;;;;;7.73;6.53;;;14.20;99.90;;;;;;10513085;28;20234;-70
2023/04/29 18:24:58;;;;;;;9.37;6.90;;;14.10;99.90;;;;;;10516319;28;20218;-71
2023/04/29 18:29:58;;;;;;;8.07;6.30;;;14.10;99.90;;;;;;10526371;28;20226;-72
2023/04/29 18:34:59;;;;;;;6.33;5.73;;;14.00;99.90;;;;;;10505125;28;20210;-71
2023/04/29 18:39:59;;;;;;;7.77;7.03;;;13.90;99.90;;;;;;10510624;28;20785;-70
2023/04/29 18:45:00;;;;;;;7.80;6.50;;;13.90;99.90;;;;;;10513665;28;20725;-71
2023/04/29 18:50:01;;;;;;;8.87;6.73;;;13.90;99.90;;;;;;10525441;28;20219;-71
2023/04/29 18:55:01;;;;;;;8.33;7.20;;;13.70;99.90;;;;;;10519037;28;20612;-70
2023/04/29 19:00:02;;;;;;;8.33;7.23;;;13.70;99.90;;;;;;10522416;28;20697;-70
2023/04/29 19:05:07;;;;;;;7.60;6.80;;;13.70;99.90;;;;;;10490445;28;20235;-71
2023/04/29 19:10:08;;;;;;;9.53;7.73;;;13.70;99.90;;;;;;10500746;28;20317;-70
2023/04/29 19:15:10;;;;;;;10.80;7.63;;;13.60;99.90;;;;;;10489545;28;20983;-71
2023/04/29 19:20:11;;;;;;;8.37;7.57;;;13.70;99.90;;;;;;10495330;28;20297;-71
2023/04/29 19:25:12;;;;;;;8.87;7.97;;;13.60;99.90;;;;;;10488837;28;20282;-71
2023/04/29 19:30:12;;;;;;;9.43;8.50;;;13.70;99.90;;;;;;10513749;28;20186;-71
2023/04/29 19:35:13;;;;;;;9.10;8.20;;;13.60;99.90;;;;;;10504943;28;20183;-72
2023/04/29 19:40:13;;;;;;;9.70;7.97;;;13.70;99.90;;;;;;10506050;28;20235;-70
2023/04/29 19:45:14;;;;;;;11.30;7.57;;;13.60;99.90;;;;;;10495457;28;20265;-71
2023/04/29 19:50:15;;;;;;;9.23;7.60;;;13.60;99.90;;;;;;10505996;28;20190;-70
2023/04/29 19:55:15;;;;;;;9.63;7.77;;;13.50;99.90;;;;;;10499276;28;20198;-70
2023/04/29 20:00:19;;;;;;;9.47;7.33;;;13.50;99.90;;;;;;10521466;28;20211;-69
2023/04/29 20:05:20;;;;;;;10.60;8.23;;;13.50;99.90;;;;;;10516120;28;20187;-72
2023/04/29 20:10:20;;;;;;;8.83;7.60;;;13.50;99.90;;;;;;10491469;28;20192;-71
2023/04/29 20:15:21;;;;;;;10.23;8.20;;;13.40;99.90;;;;;;10521142;28;20179;-71
2023/04/29 20:20:23;;;;;;;9.30;8.33;;;13.50;99.90;;;;;;10495474;28;20215;-71
2023/04/29 20:25:24;;;;;;;10.13;8.03;;;13.40;99.90;;;;;;10502986;28;20179;-71
2023/04/29 20:30:25;;;;;;;10.90;8.73;;;13.40;99.90;;;;;;10502251;28;20246;-70
2023/04/29 20:35:26;;;;;;;11.57;9.13;;;13.40;99.90;;;;;;10495086;28;20230;-72
2023/04/29 20:40:26;;;;;;;10.77;8.70;;;13.40;99.90;;;;;;10527388;28;20237;-73
2023/04/29 20:45:27;;;;;;;10.50;8.77;;;13.30;99.90;;;;;;10494727;28;20219;-71
2023/04/29 20:50:27;;;;;;;9.97;8.97;;;13.30;99.90;;;;;;10500225;28;20800;-72
2023/04/29 20:55:28;;;;;;;10.00;8.63;;;13.20;99.90;;;;;;10520654;28;20223;-70
2023/04/29 21:00:29;;;;;;;9.57;8.47;;;13.20;99.90;;;;;;10510566;28;20233;-71
2023/04/29 21:05:29;;;;;;;10.13;8.77;;;13.20;99.90;;;;;;10494792;28;20249;-70
2023/04/29 21:10:30;;;;;;;10.67;9.20;;;13.10;99.90;;;;;;10521898;28;20214;-70
2023/04/29 21:15:33;;;;;;;8.70;7.90;;;13.10;99.90;;;;;;10493867;28;20223;-72
2023/04/29 21:20:34;;;;;;;9.67;8.10;;;13.20;99.90;;;;;;10515614;28;20258;-70
2023/04/29 21:25:35;;;;;;;12.07;9.93;;;13.20;99.90;;;;;;10512281;28;20223;-70
2023/04/29 21:30:36;;;;;;;9.87;8.83;;;13.10;99.90;;;;;;10497727;28;20283;-71
2023/04/29 21:35:40;;;;;;;12.00;9.20;;;13.10;99.90;;;;;;10494464;28;20215;-71
2023/04/29 21:40:42;;;;;;;11.90;10.10;;;13.10;99.90;;;;;;10526035;28;20238;-71
2023/04/29 21:45:43;;;;;;;12.87;9.50;;;13.10;99.90;;;;;;10514722;28;20242;-70
2023/04/29 21:50:44;;;;;;;11.20;9.40;;;13.20;99.90;;;;;;10520883;28;20328;-71
2023/04/29 21:55:45;;;;;;;9.57;8.57;;;13.10;99.90;;;;;;10496077;28;20325;-70
2023/04/29 22:00:56;;;;;;;11.93;9.43;;;13.10;99.90;;;;;;10521219;28;20234;-71
2023/04/29 22:05:57;;;;;;;9.60;8.47;;;13.00;99.90;;;;;;10519909;28;20218;-70
2023/04/29 22:10:58;;;;;;;9.20;8.30;;;13.00;99.90;;;;;;10495153;28;20219;-70
2023/04/29 22:15:58;;;;;;;11.33;8.90;;;13.00;99.90;;;;;;10516409;28;20327;-70
2023/04/29 22:20:59;;;;;;;10.43;9.23;;;13.00;99.90;;;;;;10498350;28;20329;-72
2023/04/29 22:25:59;;;;;;;10.60;9.50;;;12.90;99.90;;;;;;10510044;28;20226;-73
2023/04/29 22:31:00;;;;;;;10.03;9.00;;;12.90;99.90;;;;;;10495139;28;20234;-71
2023/04/29 22:36:02;;;;;;;13.13;9.43;;;12.90;99.90;;;;;;10494661;28;20223;-71
2023/04/29 22:41:04;;;;;;;10.77;9.27;;;12.90;99.90;;;;;;10495205;28;20233;-70
2023/04/29 22:46:05;;;;;;;12.50;9.10;;;12.90;99.90;;;;;;10508480;28;20372;-71
2023/04/29 22:51:05;;;;;;;9.83;8.83;;;12.90;99.90;;;;;;10495117;28;20309;-73
2023/04/29 22:56:09;;;;;;;10.33;9.20;;;12.80;99.90;;;;;;10518158;28;20222;-70
2023/04/29 23:01:10;;;;;;;10.10;8.90;;;12.80;99.90;;;;;;10502297;28;20272;-71
2023/04/29 23:06:10;;;;;;;10.43;9.33;;;12.80;99.90;;;;;;10495312;28;20286;-70
2023/04/29 23:11:12;;;;;;;13.40;10.03;;;12.70;99.90;;;;;;10514374;28;20311;-71
2023/04/29 23:16:12;;;;;;;12.40;9.83;;;12.70;99.90;;;;;;10488965;28;20298;-71
2023/04/29 23:21:13;;;;;;;10.77;9.13;;;12.70;99.90;;;;;;10514008;28;20521;-72
2023/04/29 23:26:13;;;;;;;11.97;9.97;;;12.80;99.90;;;;;;10514987;28;20304;-70
2023/04/29 23:31:14;;;;;;;10.63;9.53;;;12.70;99.90;;;;;;10489021;28;20219;-71
2023/04/29 23:36:14;;;;;;;10.20;9.13;;;12.70;99.90;;;;;;10513782;28;20313;-70
2023/04/29 23:41:15;;;;;;;10.63;9.53;;;12.70;99.90;;;;;;10513956;28;20230;-70
2023/04/29 23:46:15;;;;;;;13.70;10.97;;;12.60;99.90;;;;;;10490579;28;20272;-71
2023/04/29 23:51:16;;;;;;;11.47;10.27;;;12.60;99.90;;;;;;10513864;28;20229;-69
2023/04/29 23:56:17;;;;;;;12.47;10.87;;;12.60;99.90;;;;;;10494864;28;20235;-71
